Onion Creek, California Weather observations

Data are for observation ending at time listed.
 Day   Time    Ave.   Ave.  Ave.  Vector   Max.   Stn.    Total    Solar   Ave.   Snow 
  of    of     Air    Rel.  Wind   Wind    Wind   Baro.  Precip.   Rad.    Soil   Depth
Year   Day     Temp.  Hum.  Speed  Dir.    Gust   Pres.                    Temp.       
2014   (PST)    F      %     mph   deg.    mph     mb.     in.     W/m2     F      in. 
---------------------------------------------------------------------------------------  
 240   20:40   57.9    58    1.3    51      2.3   836.0   32.90       0    999.0   999.0
 240   20:50   57.7    59    1.7    43      2.4   835.9   32.90       0    999.0   999.0
 240   21:00   57.1    60    2.0    39      3.4   835.9   32.93       0    999.0   999.0
 240   21:10   57.0    60    1.7    41      2.3   835.8   32.93       0    999.0   999.0
 240   21:20   56.6    61    1.9    34      2.9   835.8   32.90       0    999.0   999.0
 240   21:30   56.4    61    1.5    42      2.0   835.7   32.90       0    999.0   999.0
 240   21:40   56.0    62    1.7    25      2.6   835.7   32.93       0    999.0   999.0
 240   21:50   55.9    62    1.2    19      1.7   835.7   32.93       0    999.0   999.0
 240   22:00   55.8    61    1.9    29      2.6   835.6   32.93       0    999.0   999.0
 240   22:10   55.5    62    1.7    38      2.6   835.5   32.93       0    999.0   999.0
 240   22:20   55.2    62    0.8    24      1.5   835.4   32.90       0    999.0   999.0
 240   22:30   54.9    61    1.3    34      2.3   835.3   32.90       0    999.0   999.0
 240   22:40   54.5    60    1.3    36      2.3   835.2   32.93       0    999.0   999.0
 240   22:50   54.0    60    1.7    40      2.3   835.2   32.93       0    999.0   999.0
 240   23:00   54.0    60    1.6    37      2.4   835.2   32.90       0    999.0   999.0
 240   23:10   53.9    59    2.1    40      2.5   835.1   32.90       0    999.0   999.0
 240   23:20   53.9    57    1.1    40      2.2   835.0   32.93       0    999.0   999.0
 240   23:30   53.6    54    1.9    38      2.7   835.0   32.93       0    999.0   999.0
 240   23:40   53.8    51    1.9    42      2.6   835.1   32.93       0    999.0   999.0
 240   23:50   53.6    48    1.5    46      2.8   835.0   32.93       0    999.0   999.0
 241    0:00   53.8    47    1.1    46      2.2   835.1   32.93       0    999.0   999.0
 241    0:10   53.6    48    1.4    46      2.4   835.0   32.93       0    999.0   999.0
 241    0:20   53.2    48    1.8    38      2.7   834.9   32.93       0    999.0   999.0
 241    0:30   53.2    47    1.6    45      2.6   834.8   32.90       0    999.0   999.0
 241    0:40   53.3    47    1.1    35      2.3   834.7   32.93       0    999.0   999.0
 241    0:50   53.0    47    1.3    47      2.2   834.6   32.90       0    999.0   999.0
 241    1:00   52.7    47    1.5    45      2.2   834.5   32.90       0    999.0   999.0
 241    1:10   52.9    46    1.8    43      2.5   834.4   32.90       0    999.0   999.0
 241    1:20   52.6    47    2.0    40      2.6   834.3   32.90       0    999.0   999.0
 241    1:30   52.9    47    1.6    44      2.6   834.3   32.93       0    999.0   999.0
 241    1:40   52.6    47    1.6    44      2.5   834.3   32.90       0    999.0   999.0
 241    1:50   52.5    47    2.2    39      2.8   834.2   32.90       0    999.0   999.0
 241    2:00   52.5    47    2.2    41      3.4   834.1   32.93       0    999.0   999.0
 241    2:10   52.4    48    1.5    45      2.4   834.1   32.90       0    999.0   999.0
 241    2:20   52.2    49    1.5    48      2.7   834.1   32.93       0    999.0   999.0
 241    2:30   52.3    49    1.6    42      2.6   834.1   32.93       0    999.0   999.0
 241    2:40   52.1    49    1.3    45      2.7   834.2   32.93       0    999.0   999.0
 241    2:50   51.9    49    1.2    50      2.9   834.1   32.90       0    999.0   999.0
 241    3:00   52.0    49    1.6    46      2.6   834.0   32.96       0    999.0   999.0
 241    3:10   52.4    47    1.4    45      2.2   834.0   32.93       0    999.0   999.0
 241    3:20   52.0    49    1.7    42      2.3   833.9   32.93       0    999.0   999.0
 241    3:30   52.0    49    2.0    42      2.4   834.0   32.93       0    999.0   999.0
 241    3:40   52.3    49    2.0    37      3.1   833.9   32.93       0    999.0   999.0
 241    3:50   52.4    48    1.6    43      2.7   833.9   32.96       0    999.0   999.0
 241    4:00   52.5    49    1.3    42      2.4   833.9   32.96       0    999.0   999.0
 241    4:10   52.1    50    1.6    42      2.5   833.8   32.96       0    999.0   999.0
 241    4:20   52.0    50    1.3    44      2.1   833.7   32.93       0    999.0   999.0
 241    4:30   52.2    50    1.7    41      2.3   833.7   32.93       0    999.0   999.0
 241    4:40   52.3    49    1.3    49      2.2   833.6   32.93       0    999.0   999.0
 241    4:50   51.9    50    1.8    42      2.7   833.8   32.93       0    999.0   999.0
 241    5:00   52.3    50    2.3    37      3.0   833.8   32.93       0    999.0   999.0
 241    5:10   52.3    51    2.6    36      3.1   833.8   32.93       0    999.0   999.0
 241    5:20   52.6    52    1.3    40      2.5   833.8   32.93       1    999.0   999.0
 241    5:30   52.8    51    0.9    49      1.8   833.9   32.93       4    999.0   999.0
 241    5:40   52.2    53    1.2    35      1.8   834.0   32.96       8    999.0   999.0
 241    5:50   51.9    54    0.8    57      2.0   833.9   32.96      14    999.0   999.0
 241    6:00   52.3    54    1.6    40      2.3   834.0   32.96      19    999.0   999.0
 241    6:10   52.4    55    1.0    41      2.3   834.0   32.96      18    999.0   999.0
 241    6:20   53.1    55    1.5    44      2.2   834.1   32.96      39    999.0   999.0
 241    6:30   53.5    56    1.6    30      2.2   834.1   32.93      65    999.0   999.0
 241    6:40   54.0    56    1.4    49      2.6   834.1   32.93      65    999.0   999.0
 241    6:50   54.7    57    0.3    50      1.0   834.2   32.93      93    999.0   999.0
 241    7:00   55.1    58    1.1    54      1.8   834.3   32.96     111    999.0   999.0
 241    7:10   55.8    59    1.2    37      1.9   834.3   32.93      98    999.0   999.0
 241    7:20   56.3    58    1.0    40      2.1   834.4   32.96     103    999.0   999.0
 241    7:30   56.8    60    0.9    36      1.8   834.3   32.93     147    999.0   999.0
 241    7:40   58.2    58    1.3    64      1.8   834.4   32.96     153    999.0   999.0
 241    7:50   59.2    57    1.1    51      1.5   834.3   32.96     141    999.0   999.0
 241    8:00   59.8    57    0.8    57      1.9   834.3   32.96     188    999.0   999.0
 241    8:10   60.9    56    0.5    37      2.0   834.3   32.96     198    999.0   999.0
 241    8:20   62.3    55    0.7    46      1.4   834.4   32.96     233    999.0   999.0
 241    8:30   63.0    55    0.4    56      1.2   834.3   32.93     149    999.0   999.0
 241    8:40   62.9    56    0.8    39      1.5   834.3   32.96     216    999.0   999.0
 241    8:50   64.4    54    0.0    40      0.5   834.3   32.96     274    999.0   999.0
 241    9:00   65.6    53    0.6    28      1.5   834.2   32.96     332    999.0   999.0
 241    9:10   67.7    40    1.0   355      1.7   834.2   32.93     629    999.0   999.0
 241    9:20   69.7    30    1.1    21      2.2   834.3   32.96     646    999.0   999.0
 241    9:30   70.9    28    1.4    25      3.0   834.4   32.93     634    999.0   999.0
 241    9:40   71.9    26    1.6    61      3.7   834.4   32.96     639    999.0   999.0
 241    9:50   71.9    23    1.7   150      4.7   834.3   32.96     295    999.0   999.0
 241   10:00   72.2    25    1.1   234      3.7   834.4   32.93     436    999.0   999.0
 241   10:10   73.0    24    1.8   281      5.5   834.4   32.93     555    999.0   999.0
 241   10:20   74.1    23    2.5   261     10.3   834.4   32.93     551    999.0   999.0
 241   10:30   73.5    22    3.3   272      9.4   834.4   32.96     503    999.0   999.0
 241   10:40   72.9    23    3.7   244      9.5   834.2   32.96     412    999.0   999.0
 241   10:50   73.1    23    2.7   260      7.8   834.2   32.93     525    999.0   999.0
 241   11:00   73.1    22    3.9   266      9.0   834.3   32.93     394    999.0   999.0
 241   11:10   73.9    23    2.8   248      7.1   834.3   32.96     823    999.0   999.0
 241   11:20   74.9    22    3.3   268      7.6   834.2   32.96     755    999.0   999.0
 241   11:30   74.0    22    3.0   241      8.8   834.2   32.93     344    999.0   999.0
 241   11:40   73.7    23    1.9   252      7.2   834.1   32.93     430    999.0   999.0
 241   11:50   73.3    22    3.5   294      8.3   834.0   32.93     299    999.0   999.0
 241   12:00   72.2    23    2.6   257      5.6   834.1   32.93     137    999.0   999.0
 241   12:10   71.7    25    2.3   282      5.4   834.0   32.93     257    999.0   999.0
 241   12:20   73.2    24    3.2   268     10.0   833.7   32.93     782    999.0   999.0
 241   12:30   73.9    24    4.1   268      8.9   833.9   32.93     645    999.0   999.0
 241   12:40   74.2    25    3.9   273      9.0   833.9   32.93     670    999.0   999.0
 241   12:50   74.6    25    3.3   249      8.0   833.6   32.96    1015    999.0   999.0
 241   13:00   75.3    24    4.9   255     13.8   833.6   32.96     998    999.0   999.0
 241   13:10   76.6    23    4.3   273      9.8   833.7   32.93     914    999.0   999.0
 241   13:20   75.2    25    3.1   240      9.3   833.7   32.93     533    999.0   999.0
 241   13:30   75.5    24    2.6   261      8.5   833.7   32.93     884    999.0   999.0
 241   13:40   75.0    23    2.1   234      6.8   833.5   32.93     508    999.0   999.0
 241   13:50   74.5    19    2.8   253      9.1   833.4   32.93     451    999.0   999.0
 241   14:00   74.2    16    2.8   267      6.9   833.1   32.93     279    999.0   999.0
 241   14:10   74.9    19    3.5   262      9.1   833.2   32.93     623    999.0   999.0
 241   14:20   76.0    19    4.0   270      8.8   833.4   32.93     659    999.0   999.0
 241   14:30   76.4    20    3.8   270      9.8   833.3   32.93     761    999.0   999.0
 241   14:40   78.1    21    4.7   269     13.5   833.2   32.93     862    999.0   999.0
 241   14:50   77.0    22    4.4   266     10.9   833.2   32.90     437    999.0   999.0
 241   15:00   76.5    22    5.0   277     11.9   833.3   32.93     558    999.0   999.0
 241   15:10   75.7    22    3.2   256      8.2   833.2   32.93     314    999.0   999.0
 241   15:20   74.7    20    3.5   268      8.0   833.3   32.90     183    999.0   999.0
 241   15:30   73.1    22    3.2   259      8.7   833.4   32.93     203    999.0   999.0
 241   15:40   73.8    22    3.1   266      9.9   833.5   32.93     315    999.0   999.0
 241   15:50   73.5    21    3.3   237      9.4   833.4   32.90     144    999.0   999.0
 241   16:00   72.4    21    2.5   245     10.1   833.3   32.93     178    999.0   999.0
 241   16:10   72.3    19    3.3   261      8.7   833.3   32.93     229    999.0   999.0
 241   16:20   72.3    19    3.1   260      8.3   833.3   32.93     206    999.0   999.0
 241   16:30   72.8    19    3.2   260     11.5   833.3   32.93     210    999.0   999.0
 241   16:40   71.8    18    3.2   256      8.8   833.1   32.90     159    999.0   999.0
 241   16:50   71.8    20    2.7   254      6.4   833.3   32.93     194    999.0   999.0
 241   17:00   71.4    20    2.7   263      8.2   833.2   32.93     108    999.0   999.0
 241   17:10   70.6    25    2.9   254      8.3   833.1   32.93     118    999.0   999.0
 241   17:20   70.6    27    2.7   261      6.2   833.1   32.90     102    999.0   999.0
 241   17:30   70.4    27    2.2   263      6.6   833.0   32.93      97    999.0   999.0
 241   17:40   70.7    26    3.6   277      9.0   833.0   32.93     126    999.0   999.0
 241   17:50   69.7    25    2.5   258      8.8   833.1   32.93      35    999.0   999.0
 241   18:00   68.3    26    1.6   242      5.3   833.2   32.93      21    999.0   999.0
 241   18:10   67.0    28    0.8   142      3.0   833.3   32.93      16    999.0   999.0
 241   18:20   66.4    28    0.9   151      3.1   833.3   32.90      15    999.0   999.0
 241   18:30   66.1    30    0.6    98      2.1   833.2   32.93       7    999.0   999.0
 241   18:40   65.4    32    0.5    95      2.0   833.2   32.93       4    999.0   999.0
 241   18:50   64.6    34    0.7    52      2.4   833.3   32.93       2    999.0   999.0
 241   19:00   63.7    36    0.4    71      1.3   833.4   32.93       0    999.0   999.0
 241   19:10   63.3    37    1.0    35      2.3   833.3   32.93       0    999.0   999.0
 241   19:20   63.1    37    0.9    66      1.7   833.4   32.93       0    999.0   999.0
 241   19:30   62.4    39    0.5    28      1.5   833.5   32.93       0    999.0   999.0
 241   19:40   60.9    42    1.4    45      3.0   833.6   32.93       0    999.0   999.0
 241   19:50   60.4    44    0.9    42      2.1   833.6   32.93       0    999.0   999.0
 241   20:00   59.9    44    0.6    24      1.4   833.4   32.93       0    999.0   999.0
 241   20:10   59.1    46    0.1    10      1.0   833.3   32.93       0    999.0   999.0
 241   20:20   58.7    46    0.8    36      1.6   833.3   32.93       0    999.0   999.0
 241   20:30   58.5    47    1.5    34      2.3   833.4   32.93       0    999.0   999.0

Return to Onion Creek graphs page.


Western Regional Climate Center,wrcc@dri.edu